Guenes, Spain
Current Conditions -  °F | °C
As of 3:30 PM on Thursday 23 Oct 2014 (Local Time) from LEBB Reporting Station
Clear Clear  
Wind Chill: 79°   Ceiling: Unl
Heat Index: 79°   Visibility: 6mi
Dew Point: 25°   Wind: 1mph
Humidity: 14%   Direction: NA
Pressure: 30.21"   Gusts: NA
Location:  43.22°N, 3.08°W
Report Text: LEBB 231330Z VRB01KT CAVOK 26/M04 Q1023 NOSIG
Loading
Personal Weather Stations






























Interactive Weather Map
Tropical Storm Tracking
New forecast layout! Learn more

10-Day Weather Forecast

Advertisements
Track Severe Weather on mobile